CheckWX is a tool to help pilots better visualize weather data.  It is not intended as a substitute for an official pre-flight weather briefing.

06:29:25 UTC

KAUG TAF
Augusta State Airport
Augusta, Maine, USA
KAUG 280532Z 2806/2906 24009G17KT P6SM FEW035 BKN060 FM281400 25012G22KT P6SM BKN050

Feb-28@
06:00 UTC

Feb-28 @ 06:00 UTC

Feb-28@
14:00 UTC

Feb-28 @ 14:00 UTC

KAUG 280532Z 2806/2906 24009G17KT P6SM FEW035 BKN060
Wind
  • 240° at 9 KTS
  • {Gusting to 17 KTS
Cloud Levels
  • Few at 3,500' AGL
  • Broken at 6,000' AGL

Feb-28@
14:00 UTC

Feb-28 @ 14:00 UTC

Feb-29@
06:00 UTC

Feb-29 @ 06:00 UTC

FM281400 25012G22KT P6SM BKN050

From

From Standard forecast or significant change

Wind
  • 250° at 12 KTS
  • {Gusting to 22 KTS
Cloud Levels
  • Broken at 5,000' AGL